createdAt,value
2017-11-10T00:01:01.247Z,19.55
2017-11-10T00:03:29.326Z,19.45
2017-11-10T00:05:57.379Z,20.73
2017-11-10T00:08:25.430Z,20.80
2017-11-10T00:10:54.275Z,21.75
2017-11-10T00:13:22.336Z,20.02
2017-11-10T00:15:50.419Z,21.45
2017-11-10T00:18:18.874Z,23.02
2017-11-10T00:20:48.283Z,22.85
2017-11-10T00:23:17.044Z,22.30
2017-11-10T00:25:45.877Z,20.62
2017-11-10T00:28:13.918Z,21.58
2017-11-10T00:30:41.990Z,21.87
2017-11-10T00:33:10.815Z,21.40
2017-11-10T00:35:38.889Z,22.50
2017-11-10T00:38:06.948Z,21.67
2017-11-10T00:40:35.031Z,22.67
2017-11-10T00:43:03.496Z,21.92
2017-11-10T00:45:31.547Z,22.00
2017-11-10T00:47:59.622Z,23.70
2017-11-10T00:50:27.686Z,21.95
2017-11-10T00:52:55.764Z,22.35
2017-11-10T00:55:23.814Z,22.58
2017-11-10T00:57:53.378Z,22.13
2017-11-10T01:00:21.473Z,21.60
2017-11-10T01:02:49.554Z,20.77
2017-11-10T01:05:18.394Z,22.02
2017-11-10T01:07:46.847Z,23.42
2017-11-10T01:10:14.918Z,21.15
2017-11-10T01:12:42.983Z,23.80
2017-11-10T01:15:11.818Z,24.20
2017-11-10T01:17:40.298Z,24.08
2017-11-10T01:20:08.351Z,22.23
2017-11-10T01:22:36.410Z,22.13
2017-11-10T01:25:04.490Z,20.08
2017-11-10T01:27:32.563Z,21.80
2017-11-10T01:30:01.775Z,21.10
2017-11-10T01:32:29.834Z,21.50
2017-11-10T01:34:57.906Z,20.67
2017-11-10T01:37:25.973Z,22.48
2017-11-10T01:39:54.050Z,20.35
2017-11-10T01:42:22.880Z,21.27
2017-11-10T01:44:50.941Z,21.45
2017-11-10T01:47:19.021Z,22.02
2017-11-10T01:49:52.704Z,21.15
2017-11-10T01:52:22.133Z,23.92
2017-11-10T01:54:50.874Z,24.15
2017-11-10T01:57:18.963Z,24.48
2017-11-10T01:59:47.014Z,23.55
2017-11-10T02:02:15.078Z,23.08
2017-11-10T02:04:43.549Z,25.10
2017-11-10T02:07:12.391Z,23.83
2017-11-10T02:09:41.587Z,24.73
2017-11-10T02:12:09.671Z,23.27
2017-11-10T02:14:37.723Z,23.45
2017-11-10T02:17:06.567Z,22.95
2017-11-10T02:19:35.391Z,21.70
2017-11-10T02:22:03.453Z,23.20
2017-11-10T02:24:31.509Z,22.90
2017-11-10T02:26:59.578Z,24.63
2017-11-10T02:29:28.402Z,21.42
2017-11-10T02:31:56.457Z,22.83
2017-11-10T02:34:24.537Z,23.23
2017-11-10T02:36:52.591Z,22.05
2017-11-10T02:39:20.654Z,22.83
2017-11-10T02:41:48.713Z,21.73
2017-11-10T02:44:18.275Z,20.48
2017-11-10T02:46:47.117Z,21.92
2017-11-10T02:49:15.929Z,21.58
2017-11-10T02:51:44.007Z,21.95
2017-11-10T02:54:12.080Z,24.58
2017-11-10T02:56:40.533Z,24.52
2017-11-10T02:59:08.600Z,26.25
2017-11-10T03:01:37.428Z,24.35
2017-11-10T03:04:06.618Z,24.30
2017-11-10T03:06:34.683Z,24.77
2017-11-10T03:09:02.738Z,24.83
2017-11-10T03:11:30.802Z,24.45
2017-11-10T03:13:59.647Z,25.02
2017-11-10T03:16:27.702Z,23.67
2017-11-10T03:18:55.754Z,22.90
2017-11-10T03:21:23.814Z,25.80
2017-11-10T03:23:53.221Z,24.00
2017-11-10T03:26:21.586Z,24.75
2017-11-10T03:28:50.416Z,25.25
2017-11-10T03:31:18.487Z,26.73
2017-11-10T03:33:46.554Z,26.87
2017-11-10T03:36:14.603Z,26.52
2017-11-10T03:38:42.667Z,24.77
2017-11-10T03:41:11.489Z,26.83
2017-11-10T03:43:39.562Z,26.40
2017-11-10T03:46:08.758Z,25.50
2017-11-10T03:48:36.825Z,25.60
2017-11-10T03:51:04.898Z,24.55
2017-11-10T03:53:32.958Z,26.23
2017-11-10T03:56:01.406Z,25.67
2017-11-10T03:58:30.233Z,26.67
2017-11-10T04:00:58.286Z,27.90
2017-11-10T04:03:27.119Z,26.77
2017-11-10T04:05:55.178Z,26.77
2017-11-10T04:08:23.626Z,27.10
2017-11-10T04:10:52.451Z,27.80
2017-11-10T04:13:20.505Z,29.23
2017-11-10T04:15:48.562Z,28.35
2017-11-10T04:18:17.377Z,29.70
2017-11-10T04:20:45.842Z,31.60
2017-11-10T04:23:13.906Z,30.75
2017-11-10T04:25:42.749Z,30.12
2017-11-10T04:28:10.804Z,28.80
2017-11-10T04:30:38.862Z,30.70
2017-11-10T04:33:06.918Z,30.40
2017-11-10T04:35:34.981Z,30.12
2017-11-10T04:38:03.801Z,28.75
2017-11-10T04:40:31.858Z,27.17
2017-11-10T04:42:59.926Z,27.55
2017-11-10T04:45:28.006Z,28.83
2017-11-10T04:47:56.061Z,26.65
2017-11-10T04:50:24.126Z,24.12
2017-11-10T04:52:53.541Z,24.85
2017-11-10T04:55:21.618Z,22.77
2017-11-10T04:57:51.170Z,25.23
2017-11-10T05:00:19.241Z,26.70
2017-11-10T05:02:47.299Z,26.12
2017-11-10T05:05:16.147Z,27.37
2017-11-10T05:07:44.203Z,25.12
2017-11-10T05:10:13.026Z,26.80
2017-11-10T05:12:41.854Z,27.50
2017-11-10T05:15:09.909Z,27.45
2017-11-10T05:17:37.968Z,25.62
2017-11-10T05:20:06.042Z,26.17
2017-11-10T05:22:34.098Z,27.95
2017-11-10T05:25:04.018Z,28.02
2017-11-10T05:27:32.089Z,26.58
2017-11-10T05:30:00.145Z,28.42
2017-11-10T05:32:28.216Z,28.58
2017-11-10T05:34:56.285Z,30.30
2017-11-10T05:37:24.772Z,28.20
2017-11-10T05:39:52.825Z,29.50
2017-11-10T05:42:22.029Z,30.25
2017-11-10T05:44:50.137Z,29.33
2017-11-10T05:47:18.208Z,28.85
2017-11-10T05:49:46.261Z,29.55
2017-11-10T05:52:14.356Z,29.35
2017-11-10T05:54:42.410Z,29.27
2017-11-10T05:57:10.466Z,28.52
2017-11-10T05:59:38.546Z,29.17
2017-11-10T06:02:06.607Z,31.30
2017-11-10T06:04:35.053Z,31.08
2017-11-10T06:07:03.534Z,28.80
2017-11-10T06:09:31.588Z,30.62
2017-11-10T06:12:00.409Z,29.58
2017-11-10T06:14:29.626Z,30.55
2017-11-10T06:16:58.446Z,31.27
2017-11-10T06:19:26.512Z,29.02
2017-11-10T06:21:55.341Z,31.80
2017-11-10T06:24:23.394Z,28.30
2017-11-10T06:26:51.470Z,31.50
2017-11-10T06:29:19.530Z,31.05
2017-11-10T06:31:47.594Z,31.92
2017-11-10T06:34:15.671Z,30.52
2017-11-10T06:36:43.730Z,30.62
2017-11-10T06:39:11.834Z,30.15
2017-11-10T06:41:39.901Z,30.30
2017-11-10T06:44:07.957Z,31.37
2017-11-10T06:46:36.015Z,31.17
2017-11-10T06:49:04.850Z,30.83
2017-11-10T06:51:34.419Z,29.37
2017-11-10T06:54:02.490Z,30.92
2017-11-10T06:56:31.901Z,31.50
2017-11-10T06:59:00.272Z,30.37
2017-11-10T07:01:28.347Z,30.02
2017-11-10T07:03:56.794Z,30.60
2017-11-10T07:06:25.621Z,31.08
2017-11-10T07:08:53.682Z,28.23
2017-11-10T07:11:21.733Z,31.08
2017-11-10T07:13:49.808Z,30.73
2017-11-10T07:16:18.626Z,30.67
2017-11-10T07:18:46.742Z,29.48
2017-11-10T07:21:14.789Z,29.15
2017-11-10T07:23:43.237Z,28.08
2017-11-10T07:26:12.442Z,27.33
2017-11-10T07:28:40.497Z,30.73
2017-11-10T07:31:08.566Z,29.17
2017-11-10T07:33:36.625Z,27.98
2017-11-10T07:36:06.070Z,26.65
2017-11-10T07:38:34.030Z,25.52
2017-11-10T07:41:02.106Z,22.40
2017-11-10T07:43:30.158Z,22.00
2017-11-10T07:45:58.219Z,20.73
2017-11-10T07:48:27.054Z,19.77
2017-11-10T07:50:55.110Z,19.20
2017-11-10T07:53:24.018Z,19.87
2017-11-10T07:55:53.590Z,19.65
2017-11-10T07:58:22.108Z,20.35
2017-11-10T08:00:52.639Z,19.60
2017-11-10T08:03:20.729Z,22.02
2017-11-10T08:05:48.803Z,20.80
2017-11-10T08:08:18.039Z,19.15
2017-11-10T08:10:47.279Z,19.73
2017-11-10T08:13:15.685Z,18.30
2017-11-10T08:15:43.788Z,19.08
2017-11-10T08:18:11.834Z,19.50
2017-11-10T08:20:40.286Z,20.20
2017-11-10T08:23:08.357Z,18.12
2017-11-10T08:25:36.406Z,20.45
2017-11-10T08:28:04.474Z,19.02
2017-11-10T08:30:32.541Z,21.27
2017-11-10T08:33:00.638Z,20.55
2017-11-10T08:35:28.690Z,19.90
2017-11-10T08:37:56.743Z,20.27
2017-11-10T08:40:25.582Z,19.80
2017-11-10T08:42:53.685Z,18.87
2017-11-10T08:45:22.907Z,18.80
2017-11-10T08:47:50.993Z,19.92
2017-11-10T08:50:19.434Z,20.17
2017-11-10T08:52:47.495Z,19.85
2017-11-10T08:55:15.962Z,22.90
2017-11-10T08:57:44.037Z,19.52
2017-11-10T09:00:12.110Z,21.42
2017-11-10T09:02:40.175Z,19.15
2017-11-10T09:05:08.235Z,20.40
2017-11-10T09:07:36.678Z,18.87
2017-11-10T09:10:04.763Z,20.75
2017-11-10T09:12:32.819Z,20.73
2017-11-10T09:15:02.005Z,20.30
2017-11-10T09:17:31.209Z,22.73
2017-11-10T09:20:00.035Z,20.40
2017-11-10T09:22:28.498Z,19.42
2017-11-10T09:24:56.566Z,20.12
2017-11-10T09:27:37.342Z,19.48
2017-11-10T09:33:29.631Z,19.08
2017-11-10T09:35:58.091Z,18.35
2017-11-10T09:38:41.953Z,17.92
2017-11-10T09:41:24.893Z,17.73
2017-11-10T09:43:53.383Z,21.33
2017-11-10T09:46:41.326Z,20.58
2017-11-10T09:52:37.466Z,20.83
2017-11-10T09:55:23.208Z,22.02
2017-11-10T09:57:55.178Z,23.23
2017-11-10T10:00:23.999Z,22.27
2017-11-10T10:02:58.995Z,23.60
2017-11-10T10:05:32.814Z,21.37
2017-11-10T10:11:04.681Z,19.70
2017-11-10T10:13:36.482Z,21.20
2017-11-10T10:16:10.642Z,20.08
2017-11-10T10:18:44.692Z,20.05
2017-11-10T10:21:15.463Z,19.33
2017-11-10T10:23:43.515Z,17.70
2017-11-10T10:26:11.673Z,20.10
2017-11-10T10:28:40.486Z,18.73
2017-11-10T10:31:08.543Z,16.45
2017-11-10T10:33:36.611Z,17.70
2017-11-10T10:36:04.672Z,18.90
2017-11-10T10:38:32.738Z,16.48
2017-11-10T10:41:00.790Z,20.17
2017-11-10T10:43:29.268Z,20.25
2017-11-10T10:45:57.317Z,19.27
2017-11-10T10:48:26.141Z,20.65
2017-11-10T10:50:54.218Z,17.92
2017-11-10T10:53:22.284Z,18.80
2017-11-10T10:55:50.371Z,17.08
2017-11-10T10:58:18.839Z,19.55
2017-11-10T11:00:46.894Z,18.65
2017-11-10T11:03:14.962Z,18.02
2017-11-10T11:05:43.021Z,16.42
2017-11-10T11:08:11.863Z,16.70
2017-11-10T11:10:41.058Z,16.35
2017-11-10T11:13:09.117Z,15.98
2017-11-10T11:15:37.203Z,16.10
2017-11-10T11:18:06.026Z,16.70
2017-11-10T11:20:34.081Z,15.52
2017-11-10T11:23:02.150Z,14.43
2017-11-10T11:25:30.218Z,13.77
2017-11-10T11:27:58.283Z,13.90
2017-11-10T11:30:26.350Z,14.40
2017-11-10T11:32:54.417Z,11.85
2017-11-10T11:35:23.290Z,13.57
2017-11-10T11:37:52.098Z,12.50
2017-11-10T11:40:20.166Z,14.43
2017-11-10T11:42:48.234Z,12.15
2017-11-10T11:45:16.295Z,12.40
2017-11-10T11:47:44.371Z,11.75
2017-11-10T11:50:13.199Z,10.25
2017-11-10T11:52:41.647Z,11.25
2017-11-10T11:55:09.731Z,10.75
2017-11-10T11:57:37.787Z,9.80
2017-11-10T12:00:06.319Z,9.25
2017-11-10T12:02:35.158Z,9.52
2017-11-10T12:05:03.218Z,9.55
2017-11-10T12:07:31.286Z,8.70
2017-11-10T12:09:59.330Z,8.45
2017-11-10T12:12:27.380Z,7.93
2017-11-10T12:14:55.442Z,7.95
2017-11-10T12:17:23.486Z,8.02
2017-11-10T12:19:51.546Z,7.43
2017-11-10T12:22:20.381Z,7.35
2017-11-10T12:24:48.455Z,7.50
2017-11-10T12:27:16.523Z,8.80
2017-11-10T12:29:44.594Z,8.55
2017-11-10T12:32:12.659Z,8.65
2017-11-10T12:34:40.705Z,9.45
2017-11-10T12:37:08.789Z,9.15
2017-11-10T12:39:36.838Z,8.70
2017-11-10T12:42:04.893Z,8.02
2017-11-10T12:44:33.329Z,8.32
2017-11-10T12:47:01.427Z,7.35
2017-11-10T12:49:29.458Z,7.00
2017-11-10T12:51:57.506Z,7.50
2017-11-10T12:54:25.575Z,6.28
2017-11-10T12:56:53.610Z,7.28
2017-11-10T12:59:21.678Z,7.57
2017-11-10T13:01:49.722Z,7.40
2017-11-10T13:04:19.146Z,6.78
2017-11-10T13:06:48.474Z,6.62
2017-11-10T13:09:17.200Z,6.20
2017-11-10T13:11:45.252Z,7.55
2017-11-10T13:14:13.294Z,6.43
2017-11-10T13:16:42.511Z,7.30
2017-11-10T13:19:11.332Z,8.00
2017-11-10T13:21:39.371Z,6.47
2017-11-10T13:24:08.210Z,6.62
2017-11-10T13:26:36.255Z,7.60
2017-11-10T13:29:04.298Z,6.95
2017-11-10T13:31:32.765Z,7.80
2017-11-10T13:34:00.802Z,7.20
2017-11-10T13:36:28.851Z,8.13
2017-11-10T13:38:56.914Z,7.65
2017-11-10T13:41:24.974Z,8.07
2017-11-10T13:43:54.378Z,8.70
2017-11-10T13:46:22.350Z,8.45
2017-11-10T13:48:51.178Z,9.55
2017-11-10T13:51:19.230Z,10.30
2017-11-10T13:53:47.695Z,10.00
2017-11-10T13:56:15.757Z,9.25
2017-11-10T13:58:44.228Z,9.65
2017-11-10T14:01:13.038Z,8.93
2017-11-10T14:03:41.134Z,10.10
2017-11-10T14:06:10.331Z,10.02
2017-11-10T14:08:38.381Z,9.82
2017-11-10T14:11:06.438Z,9.38
2017-11-10T14:13:35.251Z,9.38
2017-11-10T14:16:04.091Z,9.98
2017-11-10T14:18:33.278Z,10.23
2017-11-10T14:21:01.436Z,9.70
2017-11-10T14:23:30.217Z,10.23
2017-11-10T14:25:58.270Z,11.00
2017-11-10T14:28:26.731Z,10.52
2017-11-10T14:30:55.550Z,10.95
2017-11-10T14:33:23.622Z,10.40
2017-11-10T14:35:51.694Z,11.45
2017-11-10T14:38:20.882Z,11.02
2017-11-10T14:40:48.946Z,11.50
2017-11-10T14:43:18.144Z,10.65
2017-11-10T14:45:46.308Z,12.05
2017-11-10T14:48:15.139Z,10.30
2017-11-10T14:50:43.194Z,10.35
2017-11-10T14:53:11.275Z,10.07
2017-11-10T14:55:40.679Z,10.15
2017-11-10T14:58:08.642Z,10.25
2017-11-10T15:00:36.710Z,9.73
2017-11-10T15:03:04.755Z,9.43
2017-11-10T15:05:33.582Z,8.35
2017-11-10T15:08:02.407Z,8.70
2017-11-10T15:10:30.470Z,9.45
2017-11-10T15:12:58.538Z,7.87
2017-11-10T15:15:26.583Z,8.02
2017-11-10T15:17:54.630Z,7.80
2017-11-10T15:20:22.686Z,7.35
2017-11-10T15:22:51.162Z,7.70
2017-11-10T15:25:19.606Z,8.05
2017-11-10T15:27:47.666Z,7.10
2017-11-10T15:30:16.480Z,6.60
2017-11-10T15:32:45.290Z,6.22
2017-11-10T15:35:14.490Z,6.05
2017-11-10T15:37:42.535Z,6.28
2017-11-10T15:40:12.097Z,7.12
2017-11-10T15:42:40.142Z,6.10
2017-11-10T15:45:08.971Z,6.37
2017-11-10T15:47:37.131Z,5.80
2017-11-10T15:50:05.187Z,5.55
2017-11-10T15:52:34.003Z,4.87
2017-11-10T15:55:02.062Z,5.65
2017-11-10T15:57:30.122Z,4.82
2017-11-10T15:59:58.929Z,5.15
2017-11-10T16:02:26.986Z,4.90
2017-11-10T16:04:55.082Z,4.30
2017-11-10T16:07:23.534Z,4.47
2017-11-10T16:09:52.342Z,4.20
2017-11-10T16:12:22.213Z,3.17
2017-11-10T16:14:51.525Z,3.45
2017-11-10T16:17:20.264Z,2.75
2017-11-10T16:19:48.312Z,3.25
2017-11-10T16:22:17.506Z,3.90
2017-11-10T16:24:45.950Z,3.03
2017-11-10T16:27:13.994Z,3.35
2017-11-10T16:29:42.450Z,3.25
2017-11-10T16:32:10.511Z,2.47
2017-11-10T16:34:38.576Z,3.25
2017-11-10T16:37:07.404Z,2.22
2017-11-10T16:39:36.203Z,2.65
2017-11-10T16:42:05.046Z,3.28
2017-11-10T16:44:33.090Z,3.75
2017-11-10T16:47:01.132Z,2.78
2017-11-10T16:49:29.194Z,2.53
2017-11-10T16:51:58.004Z,2.40
2017-11-10T16:54:26.061Z,2.53
2017-11-10T16:56:54.106Z,2.33
2017-11-10T16:59:22.165Z,3.53
2017-11-10T17:01:50.222Z,3.10
2017-11-10T17:04:19.063Z,2.72
2017-11-10T17:06:47.105Z,2.72
2017-11-10T17:09:15.919Z,3.50
2017-11-10T17:11:43.990Z,3.80
2017-11-10T17:14:12.031Z,2.62
2017-11-10T17:16:40.079Z,2.67
2017-11-10T17:19:08.922Z,2.87
2017-11-10T17:21:37.725Z,2.17
2017-11-10T17:24:06.538Z,2.20
2017-11-10T17:26:34.594Z,2.72
2017-11-10T17:29:02.651Z,2.40
2017-11-10T17:31:31.462Z,3.25
2017-11-10T17:33:59.518Z,3.50
2017-11-10T17:36:27.562Z,3.00
2017-11-10T17:38:55.623Z,3.97
2017-11-10T17:41:23.667Z,3.85
2017-11-10T17:43:52.490Z,4.05
2017-11-10T17:46:20.534Z,4.30
2017-11-10T17:48:50.754Z,4.15
2017-11-10T17:51:19.562Z,4.75
2017-11-10T17:53:47.621Z,4.47
2017-11-10T17:56:16.804Z,4.07
2017-11-10T17:58:44.863Z,3.40
2017-11-10T18:01:13.309Z,4.32
2017-11-10T18:03:41.362Z,4.45
2017-11-10T18:06:09.423Z,4.25
2017-11-10T18:08:37.466Z,3.60
2017-11-10T18:11:05.546Z,2.95
2017-11-10T18:13:34.355Z,2.65
2017-11-10T18:16:02.406Z,2.70
2017-11-10T18:18:31.242Z,3.45
2017-11-10T18:21:00.047Z,2.75
2017-11-10T18:23:28.090Z,3.08
2017-11-10T18:25:56.543Z,3.62
2017-11-10T18:28:25.729Z,3.85
2017-11-10T18:30:53.795Z,3.28
2017-11-10T18:33:21.846Z,3.80
2017-11-10T18:35:50.650Z,4.15
2017-11-10T18:38:18.709Z,5.00
2017-11-10T18:40:46.755Z,6.18
2017-11-10T18:43:14.815Z,7.22
2017-11-10T18:45:44.213Z,6.45
2017-11-10T18:48:12.183Z,6.12
2017-11-10T18:50:40.226Z,7.35
2017-11-10T18:53:08.689Z,14.07
2017-11-10T18:55:39.653Z,6.07
2017-11-10T18:58:08.473Z,5.82
2017-11-10T19:00:36.938Z,7.50
2017-11-10T19:03:05.776Z,7.70
2017-11-10T19:05:34.240Z,8.05
2017-11-10T19:08:02.279Z,8.38
2017-11-10T19:10:31.102Z,19.25
2017-11-10T19:12:59.933Z,12.00
2017-11-10T19:15:28.762Z,10.10
2017-11-10T19:17:56.825Z,9.52
2017-11-10T19:20:24.874Z,5.70
2017-11-10T19:22:53.694Z,6.60
2017-11-10T19:25:22.890Z,4.30
2017-11-10T19:27:50.961Z,4.18
2017-11-10T19:30:19.067Z,6.07
2017-11-10T19:32:47.116Z,5.18
2017-11-10T19:35:15.174Z,6.12
2017-11-10T19:37:43.626Z,7.85
2017-11-10T19:40:12.461Z,14.02
2017-11-10T19:42:40.514Z,5.25
2017-11-10T19:45:08.587Z,5.18
2017-11-10T19:47:36.641Z,4.55
2017-11-10T19:50:05.827Z,5.87
2017-11-10T19:52:34.641Z,4.87
2017-11-10T19:55:02.699Z,5.22
2017-11-10T19:57:31.634Z,3.90
2017-11-10T20:00:00.423Z,5.00
2017-11-10T20:02:28.494Z,9.57
2017-11-10T20:04:56.535Z,3.70
2017-11-10T20:07:24.582Z,3.72
2017-11-10T20:09:53.385Z,4.03
2017-11-10T20:12:21.450Z,3.62
2017-11-10T20:14:49.988Z,4.03
2017-11-10T20:17:18.756Z,6.03
2017-11-10T20:19:46.809Z,4.28
2017-11-10T20:22:15.253Z,4.32
2017-11-10T20:24:43.310Z,4.12
2017-11-10T20:27:12.209Z,4.30
2017-11-10T20:29:40.273Z,4.35
2017-11-10T20:32:08.334Z,5.32
2017-11-10T20:34:36.370Z,4.47
2017-11-10T20:37:04.445Z,4.35
2017-11-10T20:39:32.485Z,4.18
2017-11-10T20:42:01.302Z,5.30
2017-11-10T20:44:29.386Z,4.47
2017-11-10T20:46:57.433Z,5.72
2017-11-10T20:49:26.241Z,5.50
2017-11-10T20:51:54.306Z,5.05
2017-11-10T20:54:22.357Z,5.22
2017-11-10T20:56:51.199Z,5.82
2017-11-10T20:59:19.677Z,4.20
2017-11-10T21:01:48.089Z,5.75
2017-11-10T21:04:16.142Z,5.45
2017-11-10T21:06:44.214Z,6.68
2017-11-10T21:09:12.254Z,5.90
2017-11-10T21:11:40.306Z,5.80
2017-11-10T21:14:08.374Z,5.85
2017-11-10T21:16:37.801Z,5.20
2017-11-10T21:19:06.534Z,5.15
2017-11-10T21:21:36.095Z,3.62
2017-11-10T21:24:04.166Z,11.32
2017-11-10T21:26:32.214Z,8.00
2017-11-10T21:29:00.262Z,6.78
2017-11-10T21:31:28.322Z,5.12
2017-11-10T21:33:56.379Z,5.25
2017-11-10T21:36:24.433Z,5.90
2017-11-10T21:38:52.503Z,5.32
2017-11-10T21:41:21.698Z,3.47
2017-11-10T21:43:50.269Z,4.68
2017-11-10T21:46:18.318Z,5.55
2017-11-10T21:48:47.145Z,3.65
2017-11-10T21:51:15.193Z,3.50
2017-11-10T21:53:44.605Z,3.20
2017-11-10T21:56:12.569Z,3.20
2017-11-10T21:58:41.762Z,3.30
2017-11-10T22:01:10.214Z,2.87
2017-11-10T22:03:38.250Z,3.25
2017-11-10T22:06:06.326Z,3.10
2017-11-10T22:08:34.374Z,3.87
2017-11-10T22:11:02.818Z,3.92
2017-11-10T22:13:31.645Z,4.70
2017-11-10T22:15:59.693Z,4.78
2017-11-10T22:18:28.519Z,5.25
2017-11-10T22:20:56.562Z,7.55
2017-11-10T22:23:25.388Z,5.53
2017-11-10T22:25:53.451Z,7.28
2017-11-10T22:28:21.495Z,5.60
2017-11-10T22:30:49.554Z,6.28
2017-11-10T22:33:18.370Z,7.78
2017-11-10T22:35:46.431Z,6.10
2017-11-10T22:38:15.351Z,5.40
2017-11-10T22:40:44.114Z,6.32
2017-11-10T22:43:12.926Z,5.78
2017-11-10T22:45:41.313Z,6.40
2017-11-10T22:48:09.367Z,5.87
2017-11-10T22:50:37.438Z,5.35
2017-11-10T22:53:05.498Z,6.85
2017-11-10T22:55:33.570Z,5.62
2017-11-10T22:58:01.618Z,5.50
2017-11-10T23:00:30.432Z,5.40
2017-11-10T23:02:58.491Z,4.50
2017-11-10T23:05:26.570Z,4.72
2017-11-10T23:07:55.394Z,4.60
2017-11-10T23:10:23.464Z,4.37
2017-11-10T23:12:51.509Z,5.45
2017-11-10T23:15:19.566Z,3.42
2017-11-10T23:17:47.633Z,3.85
2017-11-10T23:20:16.454Z,4.35
2017-11-10T23:22:44.902Z,6.78
2017-11-10T23:25:12.962Z,6.40
2017-11-10T23:27:41.796Z,4.85
2017-11-10T23:30:11.350Z,4.05
2017-11-10T23:32:39.409Z,3.85
2017-11-10T23:35:08.594Z,4.60
2017-11-10T23:37:37.414Z,4.72
2017-11-10T23:40:06.269Z,4.22
2017-11-10T23:42:35.087Z,4.87
2017-11-10T23:45:03.142Z,3.78
2017-11-10T23:47:32.538Z,3.58
2017-11-10T23:50:00.541Z,4.35
2017-11-10T23:52:28.982Z,4.00
2017-11-10T23:54:57.049Z,3.92
2017-11-10T23:57:25.858Z,5.50
2017-11-10T23:59:53.908Z,4.55
